Time;durP1;ratioP1;P1;durP2;ratioP2;P2;SDS_P1;SDS_P2;PMS_P1;PMS_P2;Temp;Humidity;BMP_temperature;BMP_pressure;BME280_temperature;BME280_humidity;BME280_pressure;Samples;Min_cycle;Max_cycle;Signal;HPM_P1;HPM_P2
2022/03/10 00:01:06;;;;;;;18.23;13.27;;;;;;;4.76;48.33;152586.16;5052354;28;20450;-76
2022/03/10 00:03:41;;;;;;;19.07;13.80;;;;;;;4.86;47.43;152611.91;5067421;28;20438;-76
2022/03/10 00:06:18;;;;;;;22.57;13.70;;;;;;;4.63;48.12;152552.59;5072064;28;20772;-76
2022/03/10 00:08:54;;;;;;;19.50;12.90;;;;;;;4.88;47.88;152617.06;5067662;28;20445;-76
2022/03/10 00:11:30;;;;;;;25.23;12.97;;;;;;;4.87;47.52;152613.22;5070020;28;20450;-76
2022/03/10 00:14:05;;;;;;;16.43;12.50;;;;;;;4.87;47.28;152614.47;5064966;28;21738;-76
2022/03/10 00:16:41;;;;;;;14.87;10.77;;;;;;;4.83;47.91;152604.16;5066072;28;20447;-76
2022/03/10 00:19:17;;;;;;;14.03;11.40;;;;;;;4.92;47.63;152627.34;5067859;28;20445;-76
2022/03/10 00:21:54;;;;;;;16.40;11.63;;;;;;;4.88;47.74;152615.75;5056576;28;20461;-76
2022/03/10 00:24:29;;;;;;;16.73;11.47;;;;;;;4.83;47.82;152604.16;5070298;28;20448;-76
2022/03/10 00:27:05;;;;;;;20.23;11.80;;;;;;;4.78;48.16;152591.28;5067936;28;20454;-76
2022/03/10 00:29:41;;;;;;;16.70;11.10;;;;;;;4.77;48.17;152588.69;5047505;28;20445;-76
2022/03/10 00:32:16;;;;;;;16.10;11.17;;;;;;;4.73;48.55;152577.13;5053646;28;20461;-76
2022/03/10 00:34:52;;;;;;;15.60;11.50;;;;;;;4.73;48.50;152577.13;5069921;28;20448;-76
2022/03/10 00:37:29;;;;;;;17.33;12.90;;;;;;;4.65;48.66;152556.50;5066431;28;20457;-76
2022/03/10 00:40:07;;;;;;;14.77;10.50;;;;;;;4.67;48.60;152562.94;5073559;28;20468;-76
2022/03/10 00:42:43;;;;;;;13.37;10.07;;;;;;;4.62;48.78;152548.75;5068195;28;20528;-76
2022/03/10 00:45:19;;;;;;;15.80;10.87;;;;;;;4.56;49.29;152534.59;5052395;28;20947;-76
2022/03/10 00:47:54;;;;;;;14.40;11.07;;;;;;;4.55;49.25;152532.03;5068702;28;20444;-76
2022/03/10 00:50:30;;;;;;;13.50;10.20;;;;;;;4.59;48.88;152542.31;5064090;28;20548;-76
2022/03/10 00:53:07;;;;;;;12.60;9.60;;;;;;;4.52;48.90;152523.00;5054738;28;20465;-76
2022/03/10 00:55:42;;;;;;;12.53;9.53;;;;;;;4.63;48.54;152552.59;5055075;28;20552;-77
2022/03/10 00:58:18;;;;;;;17.10;10.07;;;;;;;4.60;48.92;152544.91;5068003;28;20576;-76
2022/03/10 01:00:54;;;;;;;11.80;9.47;;;;;;;4.66;48.35;152560.34;5063238;28;20456;-76
2022/03/10 01:03:30;;;;;;;12.80;9.10;;;;;;;4.61;49.29;152547.47;5052889;28;20437;-76
2022/03/10 01:06:06;;;;;;;16.27;11.13;;;;;;;4.57;49.37;152537.19;5066489;28;20469;-76
2022/03/10 01:08:43;;;;;;;12.60;8.70;;;;;;;4.56;48.91;152534.59;5067728;28;21544;-76
2022/03/10 01:11:18;;;;;;;12.33;8.63;;;;;;;4.56;48.92;152534.59;5061695;28;20455;-76
2022/03/10 01:13:54;;;;;;;12.80;8.97;;;;;;;4.57;49.23;152537.19;5080124;28;20472;-76
2022/03/10 01:16:29;;;;;;;14.70;9.83;;;;;;;4.48;49.17;152513.97;5065696;28;20863;-76
2022/03/10 01:19:05;;;;;;;15.27;9.63;;;;;;;4.48;49.22;152512.66;5052969;28;20545;-76
2022/03/10 01:21:41;;;;;;;13.30;8.50;;;;;;;4.54;49.09;152529.44;5065693;28;20457;-76
2022/03/10 01:24:18;;;;;;;16.53;9.70;;;;;;;4.43;49.72;152501.09;5053481;28;20446;-76
2022/03/10 01:26:54;;;;;;;12.60;8.97;;;;;;;4.48;49.52;152512.66;5068677;28;20456;-76
2022/03/10 01:29:30;;;;;;;14.90;10.33;;;;;;;4.38;49.65;152486.91;5066172;28;20441;-76
2022/03/10 01:32:06;;;;;;;13.97;9.13;;;;;;;4.46;49.42;152508.81;5071687;28;20461;-76
2022/03/10 01:34:42;;;;;;;15.90;10.30;;;;;;;4.40;49.70;152493.34;5054008;28;20986;-76
2022/03/10 01:37:17;;;;;;;13.80;9.73;;;;;;;4.42;50.01;152498.50;5070093;28;20804;-76
2022/03/10 01:39:54;;;;;;;14.60;9.97;;;;;;;4.38;49.92;152488.22;5052595;28;21006;-76
2022/03/10 01:42:30;;;;;;;15.50;10.17;;;;;;;4.33;49.77;152475.34;5052211;28;20552;-76
2022/03/10 01:45:07;;;;;;;15.97;11.53;;;;;;;4.26;49.96;152457.31;5049112;28;20452;-76
2022/03/10 01:47:43;;;;;;;16.80;10.50;;;;;;;4.13;50.43;152423.84;5066682;28;20456;-76
2022/03/10 01:50:18;;;;;;;18.43;12.47;;;;;;;4.17;50.68;152434.13;5063844;28;20441;-76
2022/03/10 01:52:54;;;;;;;13.93;10.17;;;;;;;4.22;50.66;152448.28;5052142;28;20441;-76
2022/03/10 01:55:31;;;;;;;14.90;10.70;;;;;;;4.16;50.78;152431.53;5068487;28;20440;-76
2022/03/10 01:58:07;;;;;;;15.83;11.37;;;;;;;4.20;50.49;152443.16;5048841;28;20577;-77
2022/03/10 02:00:43;;;;;;;14.47;11.20;;;;;;;4.16;51.13;152431.53;5050800;28;20457;-76
2022/03/10 02:03:19;;;;;;;15.57;10.67;;;;;;;4.08;50.46;152410.91;5066343;28;20800;-76
2022/03/10 02:05:55;;;;;;;17.40;9.67;;;;;;;4.01;50.96;152392.91;5065067;28;20795;-76
2022/03/10 02:11:26;;;;;;;13.90;10.07;;;;;;;3.68;52.23;152310.50;5068617;28;20940;-76
2022/03/10 02:17:19;;;;;;;14.90;10.50;;;;;;;3.55;53.01;152277.03;5065213;28;20802;-76
2022/03/10 02:19:53;;;;;;;14.10;10.57;;;;;;;3.38;53.59;152233.28;5053100;28;20448;-76
2022/03/10 02:22:30;;;;;;;12.60;9.37;;;;;;;3.31;53.55;152215.22;5050562;28;20491;-76
2022/03/10 02:25:06;;;;;;;16.13;11.80;;;;;;;3.24;53.94;152195.94;5063227;28;20442;-76
2022/03/10 02:27:42;;;;;;;18.93;12.60;;;;;;;3.15;54.30;152174.03;5063232;28;20477;-76
2022/03/10 02:30:19;;;;;;;16.53;12.23;;;;;;;3.12;54.81;152165.06;5052775;28;20489;-76
2022/03/10 02:32:54;;;;;;;16.13;12.60;;;;;;;3.13;54.98;152168.91;5061405;28;20543;-76
2022/03/10 02:35:30;;;;;;;16.13;12.00;;;;;;;3.12;54.88;152166.38;5066198;28;20458;-76
2022/03/10 02:38:07;;;;;;;17.80;12.20;;;;;;;3.06;55.12;152150.91;5050792;28;20453;-75
2022/03/10 02:40:42;;;;;;;17.87;13.00;;;;;;;2.99;55.29;152132.91;5074060;28;20457;-76
2022/03/10 02:43:19;;;;;;;18.87;13.40;;;;;;;2.95;55.28;152123.91;5062541;28;20838;-76
2022/03/10 02:45:55;;;;;;;16.37;13.47;;;;;;;2.91;55.01;152112.34;5063740;28;20486;-76
2022/03/10 02:48:31;;;;;;;19.63;13.33;;;;;;;2.89;55.65;152107.16;5081778;28;20437;-76
2022/03/10 02:51:06;;;;;;;17.80;13.20;;;;;;;2.86;55.61;152099.47;5069651;28;20445;-76
2022/03/10 02:53:43;;;;;;;17.73;12.03;;;;;;;2.83;56.06;152091.75;5068692;28;20461;-76
2022/03/10 02:56:19;;;;;;;19.00;13.30;;;;;;;2.77;55.86;152077.59;5065587;28;20455;-76
2022/03/10 02:58:54;;;;;;;16.60;12.00;;;;;;;2.73;55.56;152067.28;5063542;28;20441;-76
2022/03/10 03:01:30;;;;;;;19.40;12.73;;;;;;;2.70;55.74;152058.31;5063582;28;20551;-76
2022/03/10 03:04:06;;;;;;;21.20;13.57;;;;;;;2.65;55.70;152045.44;5064136;28;20425;-76
2022/03/10 03:06:41;;;;;;;18.90;13.33;;;;;;;2.65;55.92;152045.44;5068075;28;20448;-76
2022/03/10 03:09:19;;;;;;;21.17;14.50;;;;;;;2.60;55.72;152032.53;5050978;28;20452;-76
2022/03/10 03:11:54;;;;;;;21.80;13.80;;;;;;;2.54;55.87;152018.44;5051036;28;20461;-76
2022/03/10 03:14:30;;;;;;;19.40;12.97;;;;;;;2.50;56.44;152006.84;5066345;28;20804;-76
2022/03/10 03:17:05;;;;;;;17.90;13.50;;;;;;;2.46;55.68;151997.84;5065342;28;20457;-76
2022/03/10 03:19:41;;;;;;;19.00;13.93;;;;;;;2.45;56.10;151996.56;5064163;28;20444;-76
2022/03/10 03:22:16;;;;;;;16.87;12.30;;;;;;;2.44;55.90;151993.97;5065306;28;20437;-76
2022/03/10 03:24:53;;;;;;;19.80;13.00;;;;;;;2.27;56.81;151950.28;5067240;28;20425;-77
2022/03/10 03:27:29;;;;;;;19.03;13.87;;;;;;;2.23;56.97;151938.66;5065178;28;20448;-76
2022/03/10 03:30:06;;;;;;;19.57;12.50;;;;;;;2.20;56.88;151932.25;5069132;28;20546;-76
2022/03/10 03:32:42;;;;;;;19.70;12.40;;;;;;;2.25;56.86;151943.84;5065231;28;20452;-77
2022/03/10 03:35:17;;;;;;;19.90;13.50;;;;;;;2.31;56.64;151959.25;5065690;28;20468;-76
2022/03/10 03:37:53;;;;;;;19.23;13.17;;;;;;;2.34;56.62;151966.97;5047219;28;20437;-76
2022/03/10 03:40:30;;;;;;;18.67;13.03;;;;;;;2.32;56.29;151961.84;5067674;28;20543;-77
2022/03/10 03:43:05;;;;;;;18.83;13.40;;;;;;;2.36;56.27;151973.41;5084141;28;20487;-74
2022/03/10 03:45:41;;;;;;;17.30;13.10;;;;;;;2.32;55.97;151963.13;5049772;28;20447;-74
2022/03/10 03:48:17;;;;;;;20.37;14.87;;;;;;;2.24;57.01;151942.56;5065838;28;20441;-74
2022/03/10 03:50:52;;;;;;;22.30;13.77;;;;;;;2.18;57.36;151927.13;5066763;28;20476;-75
2022/03/10 03:53:28;;;;;;;18.30;13.70;;;;;;;2.09;57.27;151903.94;5068438;28;20441;-75
2022/03/10 03:56:05;;;;;;;17.97;14.37;;;;;;;2.02;57.42;151885.97;5049203;28;20456;-75
2022/03/10 03:58:41;;;;;;;18.63;14.33;;;;;;;1.94;57.29;151865.41;5062962;28;20445;-76
2022/03/10 04:01:16;;;;;;;18.90;14.23;;;;;;;1.89;57.61;151851.25;5066849;28;20545;-76
2022/03/10 04:03:52;;;;;;;19.67;13.80;;;;;;;1.83;58.19;151838.41;5066829;28;20449;-76
2022/03/10 04:06:28;;;;;;;22.80;12.80;;;;;;;1.81;58.03;151832.00;5050517;28;20448;-76
2022/03/10 04:09:03;;;;;;;20.80;13.33;;;;;;;1.85;58.43;151842.28;5064285;28;20449;-76
2022/03/10 04:11:40;;;;;;;21.00;15.00;;;;;;;1.83;57.59;151838.41;5066519;28;21051;-76
2022/03/10 04:14:17;;;;;;;22.70;14.83;;;;;;;1.85;57.66;151842.28;5063674;28;20526;-76
2022/03/10 04:16:53;;;;;;;19.43;12.60;;;;;;;1.82;57.94;151834.56;5050873;28;20462;-76
2022/03/10 04:19:28;;;;;;;18.67;13.00;;;;;;;1.79;57.60;151826.84;5066270;28;20817;-77
2022/03/10 04:22:04;;;;;;;20.47;13.57;;;;;;;1.76;57.90;151820.44;5070052;28;20483;-76
2022/03/10 04:24:40;;;;;;;20.80;14.27;;;;;;;1.70;58.10;151803.69;5065415;28;20473;-76
2022/03/10 04:27:17;;;;;;;20.50;13.17;;;;;;;1.65;57.77;151790.84;5046015;28;20460;-76
2022/03/10 04:29:53;;;;;;;23.27;13.60;;;;;;;1.62;58.35;151783.13;5066674;28;20444;-76
2022/03/10 04:32:28;;;;;;;16.77;11.70;;;;;;;1.67;57.68;151795.97;5066654;28;20460;-76
2022/03/10 04:35:04;;;;;;;21.00;13.27;;;;;;;1.66;57.57;151793.44;5063375;28;20985;-76
2022/03/10 04:37:40;;;;;;;19.87;11.77;;;;;;;1.66;57.84;151793.44;5064353;28;20889;-76
2022/03/10 04:40:16;;;;;;;17.97;11.97;;;;;;;1.68;57.81;151798.56;5061555;28;20933;-76
2022/03/10 04:42:53;;;;;;;21.60;12.67;;;;;;;1.65;57.61;151790.84;5064098;28;20943;-76
2022/03/10 04:45:29;;;;;;;16.93;11.50;;;;;;;1.65;57.70;151790.84;5050689;28;20444;-76
2022/03/10 04:48:06;;;;;;;15.77;11.00;;;;;;;1.69;57.48;151801.16;5066426;28;20440;-76
2022/03/10 04:50:42;;;;;;;18.97;12.67;;;;;;;1.63;57.83;151785.72;5051937;28;20460;-76
2022/03/10 04:53:18;;;;;;;18.90;12.53;;;;;;;1.62;58.04;151783.13;5047594;28;20445;-76
2022/03/10 04:55:54;;;;;;;17.70;12.40;;;;;;;1.60;58.51;151778.00;5068306;28;20489;-76
2022/03/10 04:58:31;;;;;;;16.67;11.77;;;;;;;1.55;58.93;151766.47;5052548;28;20472;-76
2022/03/10 05:01:06;;;;;;;18.00;12.23;;;;;;;1.52;58.95;151757.44;5066673;28;20456;-76
2022/03/10 05:03:42;;;;;;;20.60;13.17;;;;;;;1.49;58.99;151749.72;5066880;28;20437;-76
2022/03/10 05:06:17;;;;;;;17.77;12.30;;;;;;;1.48;58.66;151747.19;5066311;28;20454;-76
2022/03/10 05:08:53;;;;;;;14.37;11.10;;;;;;;1.45;58.83;151739.47;5046749;28;20451;-76
2022/03/10 05:11:29;;;;;;;17.73;11.87;;;;;;;1.45;58.68;151739.47;5067466;28;20933;-76
2022/03/10 05:14:05;;;;;;;22.80;12.33;;;;;;;1.42;59.41;151731.75;5069806;28;20814;-76
2022/03/10 05:16:41;;;;;;;16.20;11.33;;;;;;;1.36;59.41;151716.31;5054264;28;20459;-76
2022/03/10 05:19:17;;;;;;;17.40;12.10;;;;;;;1.43;59.16;151734.34;5051558;28;20446;-76
2022/03/10 05:21:52;;;;;;;18.53;11.77;;;;;;;1.44;59.18;151738.19;5065754;28;20838;-76
2022/03/10 05:24:28;;;;;;;18.33;12.07;;;;;;;1.46;58.59;151742.00;5064041;28;20480;-76
2022/03/10 05:27:04;;;;;;;15.70;11.57;;;;;;;1.58;59.36;151772.88;5068131;28;20447;-76
2022/03/10 05:29:41;;;;;;;17.43;11.50;;;;;;;1.55;58.96;151765.16;5051191;28;20789;-76
2022/03/10 05:32:18;;;;;;;16.67;11.90;;;;;;;1.55;58.53;151765.16;5052162;28;20455;-76
2022/03/10 05:34:55;;;;;;;15.40;11.30;;;;;;;1.60;58.24;151778.00;5069992;28;20466;-76
2022/03/10 05:37:36;;;;;;;28.03;18.20;;;;;;;1.55;58.35;151765.16;5068490;28;20439;-76
2022/03/10 05:40:13;;;;;;;20.60;14.40;;;;;;;1.57;58.56;151770.28;5047555;28;20444;-75
2022/03/10 05:42:50;;;;;;;19.00;13.27;;;;;;;1.64;57.69;151789.56;5067813;28;20874;-76
2022/03/10 05:45:27;;;;;;;20.00;13.10;;;;;;;1.76;57.48;151819.13;5061964;28;20564;-74
2022/03/10 05:48:02;;;;;;;18.90;13.10;;;;;;;1.86;56.94;151844.84;5065955;28;20535;-74
2022/03/10 05:50:38;;;;;;;15.67;12.40;;;;;;;1.89;57.13;151852.56;5064228;28;20868;-74
2022/03/10 05:53:13;;;;;;;19.07;12.37;;;;;;;1.80;56.96;151829.44;5069213;28;20444;-74
2022/03/10 05:55:49;;;;;;;18.13;13.50;;;;;;;1.70;57.34;151803.69;5069372;28;20480;-74
2022/03/10 05:58:25;;;;;;;18.70;12.67;;;;;;;1.62;58.20;151783.13;5051011;28;20469;-74
2022/03/10 06:01:06;;;;;;;17.63;12.07;;;;;;;1.52;59.01;151757.44;5065498;28;20567;-75
2022/03/10 06:03:45;;;;;;;21.07;12.83;;;;;;;1.42;59.00;151733.06;5049333;28;20809;-76
2022/03/10 06:06:22;;;;;;;20.90;13.23;;;;;;;1.38;59.08;151721.50;5046279;28;20458;-75
2022/03/10 06:09:03;;;;;;;23.60;13.40;;;;;;;1.32;59.28;151706.06;5060501;28;20483;-75
2022/03/10 06:11:41;;;;;;;19.83;13.17;;;;;;;1.28;60.16;151695.78;5065102;28;20453;-76
2022/03/10 06:14:19;;;;;;;18.03;13.00;;;;;;;1.27;60.16;151693.22;5064798;28;20471;-74
2022/03/10 06:16:56;;;;;;;21.40;14.07;;;;;;;1.28;60.22;151695.78;5062926;28;20444;-74
2022/03/10 06:19:31;;;;;;;20.50;13.93;;;;;;;1.32;59.74;151706.06;5057041;28;20525;-75
2022/03/10 06:22:07;;;;;;;21.70;14.40;;;;;;;1.44;59.98;151736.88;5077452;28;20454;-73
2022/03/10 06:24:42;;;;;;;18.67;13.20;;;;;;;1.61;59.18;151780.59;5065876;28;20478;-74
2022/03/10 06:27:19;;;;;;;21.87;13.60;;;;;;;1.78;58.78;151824.25;5063202;28;20467;-73
2022/03/10 06:29:55;;;;;;;23.83;14.83;;;;;;;1.94;58.22;151865.41;5065106;28;20552;-75
2022/03/10 06:32:32;;;;;;;22.67;14.67;;;;;;;2.09;57.99;151903.94;5062319;28;20464;-75
2022/03/10 06:35:09;;;;;;;22.20;14.43;;;;;;;2.27;57.62;151948.97;5060557;28;20457;-75
2022/03/10 06:37:46;;;;;;;22.97;14.90;;;;;;;2.52;57.57;152013.25;5060330;28;20441;-75
2022/03/10 06:40:21;;;;;;;19.83;14.10;;;;;;;2.83;55.81;152091.75;5064702;28;20778;-74
2022/03/10 06:42:57;;;;;;;16.07;11.87;;;;;;;3.28;53.98;152207.56;5063331;28;20584;-75
2022/03/10 06:45:33;;;;;;;13.40;10.60;;;;;;;3.62;53.95;152293.78;5049373;28;20874;-74
2022/03/10 06:48:10;;;;;;;17.23;12.00;;;;;;;3.90;53.15;152364.56;5067846;28;20449;-75
2022/03/10 06:50:46;;;;;;;17.57;11.73;;;;;;;4.15;52.11;152430.28;5067194;28;20478;-75
2022/03/10 06:53:21;;;;;;;18.17;11.67;;;;;;;4.41;51.62;152494.66;5064482;28;20445;-75
2022/03/10 06:55:57;;;;;;;19.80;13.20;;;;;;;4.56;52.30;152534.59;5064580;28;20974;-75
2022/03/10 06:58:33;;;;;;;20.87;14.10;;;;;;;4.78;50.68;152591.28;5051655;28;20518;-75
2022/03/10 07:01:08;;;;;;;22.33;14.40;;;;;;;5.01;50.36;152647.97;5062525;28;20450;-76
2022/03/10 07:03:45;;;;;;;17.50;13.00;;;;;;;5.22;49.61;152702.09;5066594;28;20443;-75
2022/03/10 07:06:21;;;;;;;18.47;13.50;;;;;;;5.39;48.34;152745.94;5064832;28;20446;-76
2022/03/10 07:09:05;;;;;;;19.10;13.30;;;;;;;5.55;48.82;152787.22;5062247;28;20529;-76
2022/03/10 07:11:41;;;;;;;16.60;12.77;;;;;;;5.76;48.80;152840.06;5068474;28;20936;-76
2022/03/10 07:14:17;;;;;;;18.57;13.53;;;;;;;5.97;48.02;152895.59;5065561;28;20442;-76
2022/03/10 07:16:53;;;;;;;21.10;12.93;;;;;;;6.23;47.05;152960.06;5063282;28;20481;-76
2022/03/10 07:19:30;;;;;;;21.03;14.43;;;;;;;6.41;47.49;153007.81;5066714;28;20541;-75
2022/03/10 07:22:06;;;;;;;21.77;16.00;;;;;;;6.54;47.47;153041.38;5047291;28;20445;-76
2022/03/10 07:24:41;;;;;;;25.40;16.13;;;;;;;6.65;47.94;153068.47;5041968;28;20557;-75
2022/03/10 07:27:17;;;;;;;23.30;14.60;;;;;;;6.85;47.82;153120.13;5064805;28;20450;-75
2022/03/10 07:29:53;;;;;;;18.80;14.07;;;;;;;6.95;46.48;153145.94;5064613;28;20537;-75
2022/03/10 07:32:29;;;;;;;23.33;15.03;;;;;;;7.39;45.55;153257.00;5066035;28;20477;-74
2022/03/10 07:35:07;;;;;;;20.43;14.40;;;;;;;7.55;46.03;153299.59;5077952;28;20561;-75
2022/03/10 07:37:42;;;;;;;23.80;15.37;;;;;;;7.66;46.32;153326.72;5066842;28;20454;-75
2022/03/10 07:40:18;;;;;;;25.00;14.70;;;;;;;7.84;46.54;153373.19;5066111;28;20443;-75
2022/03/10 07:42:54;;;;;;;18.23;14.20;;;;;;;8.04;45.11;153424.91;5063043;28;20882;-76
2022/03/10 07:45:30;;;;;;;22.53;16.47;;;;;;;8.25;44.37;153479.19;5061032;28;20454;-76
2022/03/10 07:48:06;;;;;;;17.40;13.47;;;;;;;8.53;43.10;153550.28;5049002;28;20833;-76
2022/03/10 07:50:43;;;;;;;13.67;11.50;;;;;;;8.82;42.02;153623.97;5082032;28;20544;-76
2022/03/10 07:53:19;;;;;;;14.37;11.50;;;;;;;8.99;40.58;153669.25;5065073;28;20449;-76
2022/03/10 07:55:56;;;;;;;15.83;11.00;;;;;;;9.21;40.00;153723.59;5051027;28;20477;-76
2022/03/10 07:58:32;;;;;;;15.80;12.00;;;;;;;9.19;41.57;153720.97;5062932;28;20478;-76
2022/03/10 08:01:07;;;;;;;15.80;10.60;;;;;;;9.30;40.86;153746.84;5062296;28;20623;-76
2022/03/10 08:03:46;;;;;;;17.67;12.37;;;;;;;9.58;40.23;153820.56;5059210;28;20537;-75
2022/03/10 08:06:26;;;;;;;13.50;10.93;;;;;;;9.60;40.58;153825.78;5066649;28;20446;-76
2022/03/10 08:09:02;;;;;;;12.80;10.40;;;;;;;9.64;39.71;153836.09;5067390;28;20445;-76
2022/03/10 08:11:43;;;;;;;14.70;11.30;;;;;;;9.58;40.08;153820.56;5068614;28;20465;-75
2022/03/10 08:14:19;;;;;;;15.30;10.40;;;;;;;9.94;39.92;153912.47;5061994;28;20442;-75
2022/03/10 08:16:55;;;;;;;12.60;10.03;;;;;;;9.80;39.77;153877.50;5066898;28;20478;-75
2022/03/10 08:19:30;;;;;;;14.13;9.87;;;;;;;9.89;39.90;153898.22;5062533;28;20449;-75
2022/03/10 08:22:08;;;;;;;12.23;9.57;;;;;;;10.21;39.67;153981.09;5064695;28;20943;-75
2022/03/10 08:24:44;;;;;;;11.70;10.17;;;;;;;9.98;39.99;153921.53;5066573;28;20460;-75
2022/03/10 08:27:19;;;;;;;10.77;8.83;;;;;;;10.29;39.54;154003.13;5065390;28;20545;-75
2022/03/10 08:29:54;;;;;;;11.63;10.10;;;;;;;9.99;39.47;153924.09;5068790;28;20446;-75
2022/03/10 08:32:30;;;;;;;16.50;10.27;;;;;;;9.99;40.81;153924.09;5070041;28;20803;-75
2022/03/10 08:35:06;;;;;;;14.00;11.00;;;;;;;9.99;40.30;153924.09;5069612;28;20461;-75
2022/03/10 08:37:44;;;;;;;18.50;11.10;;;;;;;9.93;40.31;153908.59;5071567;28;20438;-75
2022/03/10 08:40:20;;;;;;;12.17;9.57;;;;;;;10.14;40.36;153963.00;5068006;28;20460;-75
2022/03/10 08:42:56;;;;;;;13.30;9.27;;;;;;;9.99;40.84;153924.09;5050007;28;20555;-75
2022/03/10 08:45:32;;;;;;;12.90;10.27;;;;;;;9.69;41.01;153849.03;5052474;28;20450;-75
2022/03/10 08:48:08;;;;;;;13.47;9.03;;;;;;;9.86;42.19;153890.44;5063294;28;20442;-75
2022/03/10 08:50:44;;;;;;;10.70;8.53;;;;;;;10.45;40.11;154041.94;5064141;28;20481;-75
2022/03/10 08:53:21;;;;;;;12.57;9.60;;;;;;;9.94;40.41;153912.47;5066812;28;20469;-75
2022/03/10 08:55:56;;;;;;;12.37;9.30;;;;;;;9.70;41.07;153851.63;5069433;28;20469;-75
2022/03/10 08:58:31;;;;;;;11.40;8.47;;;;;;;9.81;41.04;153878.81;5068953;28;20570;-75
2022/03/10 09:01:07;;;;;;;12.47;9.00;;;;;;;9.89;41.20;153898.22;5052832;28;20447;-75
2022/03/10 09:03:43;;;;;;;13.17;9.60;;;;;;;10.12;41.18;153957.72;5054504;28;20528;-75
2022/03/10 09:06:19;;;;;;;12.70;8.70;;;;;;;10.30;40.61;154004.38;5069514;28;20468;-75
2022/03/10 09:08:57;;;;;;;15.23;10.20;;;;;;;10.24;40.33;153988.88;5051826;28;20446;-76
2022/03/10 09:11:32;;;;;;;13.37;7.80;;;;;;;9.84;40.00;153886.59;5069035;28;20458;-75
2022/03/10 09:14:08;;;;;;;11.67;8.23;;;;;;;9.64;40.81;153836.09;5068165;28;20811;-76
2022/03/10 09:16:44;;;;;;;11.43;9.37;;;;;;;9.37;41.35;153766.22;5066157;28;20469;-75
2022/03/10 09:19:19;;;;;;;11.07;9.03;;;;;;;9.47;41.31;153790.84;5052370;28;20659;-75
2022/03/10 09:21:55;;;;;;;12.50;8.23;;;;;;;9.53;41.75;153807.63;5068434;28;20943;-75
2022/03/10 09:24:32;;;;;;;11.97;8.90;;;;;;;9.49;42.06;153796.00;5065207;28;20481;-75
2022/03/10 09:27:09;;;;;;;10.33;8.83;;;;;;;9.44;41.88;153783.06;5073993;28;20929;-75
2022/03/10 09:29:44;;;;;;;13.43;8.77;;;;;;;9.76;42.15;153867.19;5066500;28;20529;-76
2022/03/10 09:32:20;;;;;;;14.23;9.73;;;;;;;9.60;42.35;153825.78;5064679;28;20447;-75
2022/03/10 09:34:56;;;;;;;11.53;8.83;;;;;;;9.87;41.72;153894.34;5061984;28;20545;-75
2022/03/10 09:37:32;;;;;;;14.17;9.53;;;;;;;9.72;41.58;153856.81;5068058;28;20453;-75
2022/03/10 09:40:11;;;;;;;13.73;9.47;;;;;;;9.60;42.34;153825.78;5062569;28;20434;-75
2022/03/10 09:42:48;;;;;;;9.90;8.03;;;;;;;9.57;42.72;153816.69;5072032;28;20448;-75
2022/03/10 09:45:25;;;;;;;13.03;9.53;;;;;;;9.67;42.02;153842.56;5050008;28;20438;-75
2022/03/10 09:48:01;;;;;;;9.70;8.70;;;;;;;9.51;41.95;153802.47;5072331;28;20457;-75
2022/03/10 09:50:37;;;;;;;11.27;8.73;;;;;;;9.44;42.41;153784.38;5067992;28;20453;-75
2022/03/10 09:53:12;;;;;;;10.37;9.03;;;;;;;9.58;42.92;153820.56;5066858;28;20469;-75
2022/03/10 09:55:49;;;;;;;12.10;9.20;;;;;;;9.80;41.49;153876.22;5052504;28;20469;-75
2022/03/10 09:58:25;;;;;;;12.47;8.83;;;;;;;9.55;41.64;153812.84;5066499;28;20474;-75
2022/03/10 10:01:00;;;;;;;9.97;7.70;;;;;;;9.49;42.31;153796.00;5065417;28;20536;-75
2022/03/10 10:03:36;;;;;;;10.00;8.80;;;;;;;9.59;42.64;153823.16;5067192;28;20778;-75
2022/03/10 10:06:12;;;;;;;9.37;7.77;;;;;;;9.78;41.71;153871.03;5074306;28;20453;-76
2022/03/10 10:08:55;;;;;;;11.93;8.80;;;;;;;9.73;41.59;153859.41;5066445;28;20471;-75
2022/03/10 10:11:34;;;;;;;9.00;7.00;;;;;;;9.93;41.37;153908.59;5054606;28;20446;-75
2022/03/10 10:14:09;;;;;;;8.97;7.80;;;;;;;9.92;41.15;153906.00;5063235;28;20909;-75
2022/03/10 10:16:48;;;;;;;11.00;8.03;;;;;;;10.10;40.98;153952.56;5071013;28;20811;-75
2022/03/10 10:19:23;;;;;;;11.87;7.37;;;;;;;10.15;40.88;153966.88;5064337;28;20437;-75
2022/03/10 10:22:10;;;;;;;10.30;7.87;;;;;;;10.48;40.13;154051.03;5072918;28;20450;-75
2022/03/10 10:24:49;;;;;;;10.50;7.20;;;;;;;10.56;40.89;154071.75;5066638;28;20434;-75
2022/03/10 10:27:28;;;;;;;8.37;6.60;;;;;;;10.61;41.42;154084.69;5074668;28;20486;-75
2022/03/10 10:30:07;;;;;;;7.33;6.10;;;;;;;10.80;39.55;154132.59;5065648;28;20421;-75
2022/03/10 10:32:48;;;;;;;8.37;7.33;;;;;;;10.83;39.75;154140.31;5065226;28;20440;-75
2022/03/10 10:35:24;;;;;;;10.60;6.73;;;;;;;10.52;39.84;154060.06;5067199;28;20443;-75
2022/03/10 10:38:00;;;;;;;9.10;7.23;;;;;;;10.77;40.27;154126.13;5071862;28;20538;-75
2022/03/10 10:40:35;;;;;;;7.60;6.20;;;;;;;10.72;40.33;154113.13;5072076;28;20445;-75
2022/03/10 10:43:13;;;;;;;11.00;7.97;;;;;;;10.73;39.57;154115.75;5072769;28;20801;-75
2022/03/10 10:45:56;;;;;;;12.43;7.97;;;;;;;10.60;39.71;154080.78;5052024;28;20458;-75
2022/03/10 10:48:46;;;;;;;9.20;7.33;;;;;;;10.64;40.10;154091.16;5070615;28;20447;-75
2022/03/10 10:51:33;;;;;;;9.83;6.70;;;;;;;10.80;40.18;154133.84;5051313;28;20442;-75
2022/03/10 10:54:10;;;;;;;9.60;8.00;;;;;;;10.96;39.66;154175.31;5067117;28;20434;-75
2022/03/10 10:56:46;;;;;;;9.30;6.30;;;;;;;11.00;38.78;154185.69;5054056;28;20570;-75
2022/03/10 10:59:31;;;;;;;7.30;5.90;;;;;;;11.12;39.33;154214.19;5046257;28;20464;-75
2022/03/10 11:02:09;;;;;;;7.90;4.93;;;;;;;11.18;38.97;154229.72;5071671;28;20438;-75
2022/03/10 11:04:47;;;;;;;4.73;3.80;;;;;;;11.32;37.13;154267.31;5064753;28;20453;-75
2022/03/10 11:07:23;;;;;;;5.20;4.00;;;;;;;11.34;36.96;154272.47;5067452;28;20541;-75
2022/03/10 11:09:58;;;;;;;5.93;4.77;;;;;;;11.26;36.84;154251.75;5065820;28;20457;-75
2022/03/10 11:12:37;;;;;;;6.63;4.10;;;;;;;11.44;36.90;154297.06;5071232;28;20539;-75
2022/03/10 11:15:14;;;;;;;9.50;4.10;;;;;;;11.62;36.97;154343.75;5069099;28;20446;-75
2022/03/10 11:17:50;;;;;;;4.80;3.93;;;;;;;11.64;36.14;154348.94;5062394;28;20461;-75
2022/03/10 11:20:26;;;;;;;5.10;3.90;;;;;;;11.80;36.35;154389.16;5064680;28;20434;-75
2022/03/10 11:23:05;;;;;;;5.90;3.70;;;;;;;11.68;36.57;154359.28;5057363;28;20457;-76
2022/03/10 11:25:46;;;;;;;11.90;4.17;;;;;;;11.80;36.29;154389.16;5052470;28;20458;-75
2022/03/10 11:28:24;;;;;;;4.27;3.57;;;;;;;11.60;35.55;154338.53;5052694;28;20473;-76
2022/03/10 11:31:07;;;;;;;5.27;4.27;;;;;;;11.59;35.64;154335.97;5062959;28;20838;-75
2022/03/10 11:33:44;;;;;;;6.10;4.67;;;;;;;11.71;35.35;154367.09;5063642;28;20453;-75
2022/03/10 11:36:22;;;;;;;4.17;3.23;;;;;;;11.67;36.61;154356.72;5068219;28;20528;-75
2022/03/10 11:39:00;;;;;;;3.93;3.53;;;;;;;11.68;35.71;154359.28;5070691;28;20563;-75
2022/03/10 11:41:43;;;;;;;4.10;3.70;;;;;;;11.79;35.38;154387.84;5053060;28;20834;-75
2022/03/10 11:44:21;;;;;;;7.23;3.70;;;;;;;11.92;34.75;154421.53;5063134;28;20469;-75
2022/03/10 11:46:59;;;;;;;4.93;3.10;;;;;;;12.09;34.70;154465.63;5068095;28;20441;-75
2022/03/10 11:49:40;;;;;;;3.80;3.30;;;;;;;12.13;35.10;154475.97;5061755;28;20443;-75
2022/03/10 11:52:22;;;;;;;4.10;3.20;;;;;;;12.14;34.14;154477.28;5062457;28;20455;-75
2022/03/10 11:55:06;;;;;;;3.60;3.10;;;;;;;12.12;33.66;154472.13;5050307;28;20442;-76
2022/03/10 11:57:43;;;;;;;4.07;3.20;;;;;;;12.11;34.13;154470.81;5065603;28;20568;-75
2022/03/10 12:00:18;;;;;;;3.97;2.90;;;;;;;12.02;34.26;154447.44;5070702;28;20432;-75
2022/03/10 12:02:59;;;;;;;4.60;3.13;;;;;;;12.16;34.65;154483.78;5051712;28;20467;-76
2022/03/10 12:05:53;;;;;;;4.43;3.10;;;;;;;12.12;33.88;154473.41;5069075;28;20450;-75
2022/03/10 12:08:30;;;;;;;5.40;3.50;;;;;;;12.12;34.15;154473.41;5067773;28;20529;-75